Terminal Aerodrome Forecast
Issued by NWS Knoxville/Tri Cities, TN

Home | Current Version | Previous Version | Text Only | Print | Product List | Glossary On
Versions: 1 2 3 4 5 6 7 8 9 10 11 12 13 14 15 16 17 18 19 20 21 22 23 24 25 26 27
000
FTUS44 KMRX 311436 AAD
TAFTRI
TAF AMD
KTRI 311436Z 3115/0112 28004KT P6SM SCT035 BKN060
     FM311800 27005KT P6SM VCSH OVC050
     FM312200 27005KT 4SM -RA BR OVC025
     FM010200 28006KT 4SM -SNRA BR OVC015
     FM010700 28012KT 2SM -SN BR BKN009=

USA.gov is the U.S. government's official web portal to all federal, state and local government web resources and services.